sensor_id;sensor_type;location;lat;lon;timestamp;P1;durP1;ratioP1;P2;durP2;ratioP2
53915;SDS011;39827;49.652;18.770;2023-08-06T00:01:36;252.10;;;234.93;;
53915;SDS011;39827;49.652;18.770;2023-08-06T00:04:02;331.55;;;308.70;;
53915;SDS011;39827;49.652;18.770;2023-08-06T00:06:27;312.60;;;291.00;;
53915;SDS011;39827;49.652;18.770;2023-08-06T00:08:53;244.85;;;227.85;;
53915;SDS011;39827;49.652;18.770;2023-08-06T00:11:19;208.10;;;193.88;;
53915;SDS011;39827;49.652;18.770;2023-08-06T00:13:45;270.70;;;252.32;;
53915;SDS011;39827;49.652;18.770;2023-08-06T00:16:11;273.25;;;255.30;;
53915;SDS011;39827;49.652;18.770;2023-08-06T00:18:38;371.80;;;346.38;;
53915;SDS011;39827;49.652;18.770;2023-08-06T00:21:04;270.23;;;252.18;;
53915;SDS011;39827;49.652;18.770;2023-08-06T00:23:29;187.82;;;175.52;;
53915;SDS011;39827;49.652;18.770;2023-08-06T00:25:55;241.93;;;225.65;;
53915;SDS011;39827;49.652;18.770;2023-08-06T00:28:20;293.55;;;273.65;;
53915;SDS011;39827;49.652;18.770;2023-08-06T00:30:45;286.75;;;268.15;;
53915;SDS011;39827;49.652;18.770;2023-08-06T00:33:11;240.63;;;224.75;;
53915;SDS011;39827;49.652;18.770;2023-08-06T00:35:36;304.00;;;283.75;;
53915;SDS011;39827;49.652;18.770;2023-08-06T00:38:02;367.05;;;341.77;;
53915;SDS011;39827;49.652;18.770;2023-08-06T00:40:27;322.13;;;300.92;;
53915;SDS011;39827;49.652;18.770;2023-08-06T00:42:55;300.67;;;280.92;;
53915;SDS011;39827;49.652;18.770;2023-08-06T00:45:20;140.68;;;131.82;;
53915;SDS011;39827;49.652;18.770;2023-08-06T00:47:47;189.57;;;177.45;;
53915;SDS011;39827;49.652;18.770;2023-08-06T00:50:12;357.35;;;333.20;;
53915;SDS011;39827;49.652;18.770;2023-08-06T00:52:38;255.60;;;239.23;;
53915;SDS011;39827;49.652;18.770;2023-08-06T00:55:04;267.00;;;249.20;;
53915;SDS011;39827;49.652;18.770;2023-08-06T00:57:30;245.25;;;229.52;;
53915;SDS011;39827;49.652;18.770;2023-08-06T00:59:56;265.70;;;248.52;;
53915;SDS011;39827;49.652;18.770;2023-08-06T01:02:22;236.70;;;221.68;;
53915;SDS011;39827;49.652;18.770;2023-08-06T01:04:47;271.35;;;254.40;;
53915;SDS011;39827;49.652;18.770;2023-08-06T01:15:13;306.95;;;286.60;;
53915;SDS011;39827;49.652;18.770;2023-08-06T01:20:07;405.58;;;378.73;;
53915;SDS011;39827;49.652;18.770;2023-08-06T01:22:33;322.55;;;301.25;;
53915;SDS011;39827;49.652;18.770;2023-08-06T01:24:58;356.40;;;332.58;;
53915;SDS011;39827;49.652;18.770;2023-08-06T01:30:04;277.05;;;258.67;;
53915;SDS011;39827;49.652;18.770;2023-08-06T01:32:35;267.30;;;249.82;;
53915;SDS011;39827;49.652;18.770;2023-08-06T01:35:07;187.70;;;175.70;;
53915;SDS011;39827;49.652;18.770;2023-08-06T01:37:34;196.25;;;183.75;;
53915;SDS011;39827;49.652;18.770;2023-08-06T01:40:00;161.85;;;151.73;;
53915;SDS011;39827;49.652;18.770;2023-08-06T01:42:26;218.38;;;204.43;;
53915;SDS011;39827;49.652;18.770;2023-08-06T01:44:51;269.85;;;251.75;;
53915;SDS011;39827;49.652;18.770;2023-08-06T01:47:17;254.75;;;238.20;;
53915;SDS011;39827;49.652;18.770;2023-08-06T01:49:42;204.00;;;190.68;;
53915;SDS011;39827;49.652;18.770;2023-08-06T01:52:07;286.38;;;266.80;;
53915;SDS011;39827;49.652;18.770;2023-08-06T01:54:33;381.48;;;355.50;;
53915;SDS011;39827;49.652;18.770;2023-08-06T01:56:58;332.27;;;309.77;;
53915;SDS011;39827;49.652;18.770;2023-08-06T01:59:24;249.73;;;232.98;;
53915;SDS011;39827;49.652;18.770;2023-08-06T02:01:49;256.30;;;239.35;;
53915;SDS011;39827;49.652;18.770;2023-08-06T02:04:15;377.73;;;352.08;;
53915;SDS011;39827;49.652;18.770;2023-08-06T02:06:40;309.05;;;287.80;;
53915;SDS011;39827;49.652;18.770;2023-08-06T02:09:06;246.88;;;230.00;;
53915;SDS011;39827;49.652;18.770;2023-08-06T02:11:31;196.30;;;183.35;;
53915;SDS011;39827;49.652;18.770;2023-08-06T02:13:56;285.65;;;266.55;;
53915;SDS011;39827;49.652;18.770;2023-08-06T02:16:22;224.70;;;209.95;;
53915;SDS011;39827;49.652;18.770;2023-08-06T02:18:47;168.52;;;157.50;;
53915;SDS011;39827;49.652;18.770;2023-08-06T02:21:13;126.78;;;118.53;;
53915;SDS011;39827;49.652;18.770;2023-08-06T02:23:38;92.80;;;86.75;;
53915;SDS011;39827;49.652;18.770;2023-08-06T02:26:04;102.10;;;95.63;;
53915;SDS011;39827;49.652;18.770;2023-08-06T02:28:32;117.85;;;110.30;;
53915;SDS011;39827;49.652;18.770;2023-08-06T02:30:58;210.75;;;196.90;;
53915;SDS011;39827;49.652;18.770;2023-08-06T02:33:23;264.13;;;246.27;;
53915;SDS011;39827;49.652;18.770;2023-08-06T02:35:49;259.25;;;242.10;;
53915;SDS011;39827;49.652;18.770;2023-08-06T02:38:14;214.50;;;200.25;;
53915;SDS011;39827;49.652;18.770;2023-08-06T02:40:43;297.30;;;277.13;;
53915;SDS011;39827;49.652;18.770;2023-08-06T02:43:10;261.58;;;243.77;;
53915;SDS011;39827;49.652;18.770;2023-08-06T02:45:35;169.25;;;158.35;;
53915;SDS011;39827;49.652;18.770;2023-08-06T02:48:01;145.18;;;135.65;;
53915;SDS011;39827;49.652;18.770;2023-08-06T02:50:27;191.57;;;178.10;;
53915;SDS011;39827;49.652;18.770;2023-08-06T02:52:52;221.10;;;206.35;;
53915;SDS011;39827;49.652;18.770;2023-08-06T02:55:18;352.63;;;328.35;;
53915;SDS011;39827;49.652;18.770;2023-08-06T02:57:43;283.08;;;264.73;;
53915;SDS011;39827;49.652;18.770;2023-08-06T03:00:09;276.13;;;257.50;;
53915;SDS011;39827;49.652;18.770;2023-08-06T03:02:36;231.70;;;215.93;;
53915;SDS011;39827;49.652;18.770;2023-08-06T03:05:02;234.27;;;218.02;;
53915;SDS011;39827;49.652;18.770;2023-08-06T03:07:28;210.98;;;196.77;;
53915;SDS011;39827;49.652;18.770;2023-08-06T03:09:54;282.92;;;263.45;;
53915;SDS011;39827;49.652;18.770;2023-08-06T03:12:19;178.35;;;166.25;;
53915;SDS011;39827;49.652;18.770;2023-08-06T03:14:45;274.92;;;255.40;;
53915;SDS011;39827;49.652;18.770;2023-08-06T03:17:10;310.10;;;287.92;;
53915;SDS011;39827;49.652;18.770;2023-08-06T03:19:36;253.95;;;236.00;;
53915;SDS011;39827;49.652;18.770;2023-08-06T03:22:01;291.35;;;270.63;;
53915;SDS011;39827;49.652;18.770;2023-08-06T03:24:26;264.48;;;246.25;;
53915;SDS011;39827;49.652;18.770;2023-08-06T03:26:52;310.15;;;287.67;;
53915;SDS011;39827;49.652;18.770;2023-08-06T03:29:17;254.82;;;237.00;;
53915;SDS011;39827;49.652;18.770;2023-08-06T03:31:43;293.60;;;273.67;;
53915;SDS011;39827;49.652;18.770;2023-08-06T03:34:08;237.88;;;222.15;;
53915;SDS011;39827;49.652;18.770;2023-08-06T03:36:33;238.18;;;222.48;;
53915;SDS011;39827;49.652;18.770;2023-08-06T03:38:59;205.25;;;191.68;;
53915;SDS011;39827;49.652;18.770;2023-08-06T03:41:24;284.70;;;265.08;;
53915;SDS011;39827;49.652;18.770;2023-08-06T03:43:50;253.07;;;235.55;;
53915;SDS011;39827;49.652;18.770;2023-08-06T03:46:15;275.95;;;256.55;;
53915;SDS011;39827;49.652;18.770;2023-08-06T03:48:40;238.10;;;221.95;;
53915;SDS011;39827;49.652;18.770;2023-08-06T03:51:06;267.90;;;249.77;;
53915;SDS011;39827;49.652;18.770;2023-08-06T03:53:31;237.80;;;221.70;;
53915;SDS011;39827;49.652;18.770;2023-08-06T03:55:57;204.80;;;191.40;;
53915;SDS011;39827;49.652;18.770;2023-08-06T03:58:25;184.02;;;172.30;;
53915;SDS011;39827;49.652;18.770;2023-08-06T04:00:57;253.80;;;237.23;;
53915;SDS011;39827;49.652;18.770;2023-08-06T04:03:23;273.52;;;255.57;;
53915;SDS011;39827;49.652;18.770;2023-08-06T04:05:49;296.13;;;276.25;;
53915;SDS011;39827;49.652;18.770;2023-08-06T04:08:14;272.50;;;254.52;;
53915;SDS011;39827;49.652;18.770;2023-08-06T04:10:39;252.70;;;236.10;;
53915;SDS011;39827;49.652;18.770;2023-08-06T04:13:05;240.52;;;224.77;;
53915;SDS011;39827;49.652;18.770;2023-08-06T04:15:33;285.98;;;267.52;;
53915;SDS011;39827;49.652;18.770;2023-08-06T04:17:59;243.15;;;227.68;;
53915;SDS011;39827;49.652;18.770;2023-08-06T04:20:24;217.18;;;203.55;;
53915;SDS011;39827;49.652;18.770;2023-08-06T04:22:49;340.45;;;317.58;;
53915;SDS011;39827;49.652;18.770;2023-08-06T04:25:15;324.77;;;302.70;;
53915;SDS011;39827;49.652;18.770;2023-08-06T04:27:45;321.88;;;300.00;;
53915;SDS011;39827;49.652;18.770;2023-08-06T04:30:11;235.82;;;220.55;;
53915;SDS011;39827;49.652;18.770;2023-08-06T04:32:37;216.05;;;202.40;;
53915;SDS011;39827;49.652;18.770;2023-08-06T04:35:03;301.83;;;282.02;;
53915;SDS011;39827;49.652;18.770;2023-08-06T04:37:28;236.30;;;220.82;;
53915;SDS011;39827;49.652;18.770;2023-08-06T04:39:54;273.80;;;255.70;;
53915;SDS011;39827;49.652;18.770;2023-08-06T04:42:19;252.32;;;235.93;;
53915;SDS011;39827;49.652;18.770;2023-08-06T04:44:44;248.88;;;232.65;;
53915;SDS011;39827;49.652;18.770;2023-08-06T04:47:10;263.92;;;246.93;;
53915;SDS011;39827;49.652;18.770;2023-08-06T04:49:35;253.63;;;237.55;;
53915;SDS011;39827;49.652;18.770;2023-08-06T04:52:01;221.02;;;207.07;;
53915;SDS011;39827;49.652;18.770;2023-08-06T04:54:26;260.65;;;243.60;;
53915;SDS011;39827;49.652;18.770;2023-08-06T04:56:51;213.85;;;199.98;;
53915;SDS011;39827;49.652;18.770;2023-08-06T04:59:17;195.93;;;183.38;;
53915;SDS011;39827;49.652;18.770;2023-08-06T05:01:42;232.90;;;217.63;;
53915;SDS011;39827;49.652;18.770;2023-08-06T05:04:08;185.88;;;173.60;;
53915;SDS011;39827;49.652;18.770;2023-08-06T05:06:33;224.48;;;210.07;;
53915;SDS011;39827;49.652;18.770;2023-08-06T05:08:59;266.23;;;248.40;;
53915;SDS011;39827;49.652;18.770;2023-08-06T05:11:24;258.00;;;241.07;;
53915;SDS011;39827;49.652;18.770;2023-08-06T05:13:50;199.35;;;187.07;;
53915;SDS011;39827;49.652;18.770;2023-08-06T05:16:15;209.25;;;195.77;;
53915;SDS011;39827;49.652;18.770;2023-08-06T05:18:40;230.55;;;215.45;;
53915;SDS011;39827;49.652;18.770;2023-08-06T05:21:06;325.35;;;303.20;;
53915;SDS011;39827;49.652;18.770;2023-08-06T05:23:32;308.60;;;288.00;;
53915;SDS011;39827;49.652;18.770;2023-08-06T05:25:57;229.15;;;214.27;;
53915;SDS011;39827;49.652;18.770;2023-08-06T05:28:23;193.35;;;180.80;;
53915;SDS011;39827;49.652;18.770;2023-08-06T05:30:48;208.35;;;195.40;;
53915;SDS011;39827;49.652;18.770;2023-08-06T05:33:14;194.32;;;181.80;;
53915;SDS011;39827;49.652;18.770;2023-08-06T05:35:40;188.65;;;176.55;;
53915;SDS011;39827;49.652;18.770;2023-08-06T05:38:07;126.78;;;118.93;;
53915;SDS011;39827;49.652;18.770;2023-08-06T05:40:35;154.18;;;144.20;;
53915;SDS011;39827;49.652;18.770;2023-08-06T05:43:00;125.40;;;117.75;;
53915;SDS011;39827;49.652;18.770;2023-08-06T05:45:26;194.18;;;181.48;;
53915;SDS011;39827;49.652;18.770;2023-08-06T05:47:51;341.80;;;318.38;;
53915;SDS011;39827;49.652;18.770;2023-08-06T05:50:19;268.13;;;250.13;;
53915;SDS011;39827;49.652;18.770;2023-08-06T05:52:44;281.60;;;263.27;;
53915;SDS011;39827;49.652;18.770;2023-08-06T05:55:10;331.42;;;308.58;;
53915;SDS011;39827;49.652;18.770;2023-08-06T05:57:35;444.50;;;413.17;;
53915;SDS011;39827;49.652;18.770;2023-08-06T06:00:01;510.20;;;474.42;;
53915;SDS011;39827;49.652;18.770;2023-08-06T06:02:27;473.77;;;440.02;;
53915;SDS011;39827;49.652;18.770;2023-08-06T06:04:53;511.63;;;475.45;;
53915;SDS011;39827;49.652;18.770;2023-08-06T06:07:18;454.98;;;423.80;;
53915;SDS011;39827;49.652;18.770;2023-08-06T06:09:44;417.33;;;389.88;;
53915;SDS011;39827;49.652;18.770;2023-08-06T06:12:10;359.77;;;335.70;;
53915;SDS011;39827;49.652;18.770;2023-08-06T06:14:35;518.38;;;482.58;;
53915;SDS011;39827;49.652;18.770;2023-08-06T06:17:00;470.73;;;437.33;;
53915;SDS011;39827;49.652;18.770;2023-08-06T06:19:26;443.27;;;412.40;;
53915;SDS011;39827;49.652;18.770;2023-08-06T06:21:52;413.63;;;386.17;;
53915;SDS011;39827;49.652;18.770;2023-08-06T06:24:18;415.95;;;387.42;;
53915;SDS011;39827;49.652;18.770;2023-08-06T06:26:44;463.63;;;430.60;;
53915;SDS011;39827;49.652;18.770;2023-08-06T06:29:09;399.65;;;371.38;;
53915;SDS011;39827;49.652;18.770;2023-08-06T06:31:34;359.10;;;334.40;;
53915;SDS011;39827;49.652;18.770;2023-08-06T06:34:00;279.77;;;260.45;;
53915;SDS011;39827;49.652;18.770;2023-08-06T06:36:26;164.05;;;153.43;;
53915;SDS011;39827;49.652;18.770;2023-08-06T06:38:51;128.13;;;120.07;;
53915;SDS011;39827;49.652;18.770;2023-08-06T06:41:17;203.52;;;190.82;;
53915;SDS011;39827;49.652;18.770;2023-08-06T06:43:42;182.25;;;170.75;;
53915;SDS011;39827;49.652;18.770;2023-08-06T06:46:07;405.88;;;378.00;;
53915;SDS011;39827;49.652;18.770;2023-08-06T06:48:33;427.02;;;398.73;;
53915;SDS011;39827;49.652;18.770;2023-08-06T06:50:58;460.02;;;427.60;;
53915;SDS011;39827;49.652;18.770;2023-08-06T06:53:24;502.15;;;467.38;;
53915;SDS011;39827;49.652;18.770;2023-08-06T06:55:56;470.98;;;437.30;;
53915;SDS011;39827;49.652;18.770;2023-08-06T06:58:26;516.13;;;479.88;;
53915;SDS011;39827;49.652;18.770;2023-08-06T07:00:52;323.70;;;302.48;;
53915;SDS011;39827;49.652;18.770;2023-08-06T07:03:17;390.65;;;363.80;;
53915;SDS011;39827;49.652;18.770;2023-08-06T07:05:43;419.48;;;391.02;;
53915;SDS011;39827;49.652;18.770;2023-08-06T07:08:09;548.70;;;510.63;;
53915;SDS011;39827;49.652;18.770;2023-08-06T07:10:35;491.98;;;457.42;;
53915;SDS011;39827;49.652;18.770;2023-08-06T07:13:00;478.85;;;445.63;;
53915;SDS011;39827;49.652;18.770;2023-08-06T07:15:25;477.70;;;444.02;;
53915;SDS011;39827;49.652;18.770;2023-08-06T07:17:51;362.25;;;338.15;;
53915;SDS011;39827;49.652;18.770;2023-08-06T07:20:16;401.33;;;374.67;;
53915;SDS011;39827;49.652;18.770;2023-08-06T07:22:42;468.80;;;438.10;;
53915;SDS011;39827;49.652;18.770;2023-08-06T07:25:07;458.77;;;425.23;;
53915;SDS011;39827;49.652;18.770;2023-08-06T07:27:33;388.13;;;361.25;;
53915;SDS011;39827;49.652;18.770;2023-08-06T07:29:58;439.20;;;409.13;;
53915;SDS011;39827;49.652;18.770;2023-08-06T07:32:24;403.55;;;376.75;;
53915;SDS011;39827;49.652;18.770;2023-08-06T07:34:49;423.38;;;394.77;;
53915;SDS011;39827;49.652;18.770;2023-08-06T07:37:15;454.98;;;423.00;;
53915;SDS011;39827;49.652;18.770;2023-08-06T07:39:41;438.17;;;408.33;;
53915;SDS011;39827;49.652;18.770;2023-08-06T07:42:07;362.98;;;338.77;;
53915;SDS011;39827;49.652;18.770;2023-08-06T07:44:33;353.45;;;330.30;;
53915;SDS011;39827;49.652;18.770;2023-08-06T07:46:58;428.05;;;398.77;;
53915;SDS011;39827;49.652;18.770;2023-08-06T07:49:24;517.35;;;481.17;;
53915;SDS011;39827;49.652;18.770;2023-08-06T07:51:49;530.25;;;494.05;;
53915;SDS011;39827;49.652;18.770;2023-08-06T07:54:16;522.35;;;487.42;;
53915;SDS011;39827;49.652;18.770;2023-08-06T07:56:42;486.95;;;454.80;;
53915;SDS011;39827;49.652;18.770;2023-08-06T07:59:07;476.55;;;444.85;;
53915;SDS011;39827;49.652;18.770;2023-08-06T08:01:33;369.27;;;344.98;;
53915;SDS011;39827;49.652;18.770;2023-08-06T08:03:58;484.20;;;451.25;;
53915;SDS011;39827;49.652;18.770;2023-08-06T08:06:24;488.98;;;455.98;;
53915;SDS011;39827;49.652;18.770;2023-08-06T08:08:49;483.00;;;449.77;;
53915;SDS011;39827;49.652;18.770;2023-08-06T08:11:15;487.83;;;454.92;;
53915;SDS011;39827;49.652;18.770;2023-08-06T08:13:41;458.60;;;427.58;;
53915;SDS011;39827;49.652;18.770;2023-08-06T08:16:06;482.77;;;450.50;;
53915;SDS011;39827;49.652;18.770;2023-08-06T08:18:32;423.52;;;396.13;;
53915;SDS011;39827;49.652;18.770;2023-08-06T08:20:57;425.55;;;398.30;;
53915;SDS011;39827;49.652;18.770;2023-08-06T08:23:23;414.05;;;387.38;;
53915;SDS011;39827;49.652;18.770;2023-08-06T08:25:48;459.08;;;429.63;;
53915;SDS011;39827;49.652;18.770;2023-08-06T08:28:14;446.08;;;417.27;;
53915;SDS011;39827;49.652;18.770;2023-08-06T08:30:40;414.60;;;388.00;;
53915;SDS011;39827;49.652;18.770;2023-08-06T08:33:06;413.45;;;387.15;;
53915;SDS011;39827;49.652;18.770;2023-08-06T08:35:32;446.85;;;417.90;;
53915;SDS011;39827;49.652;18.770;2023-08-06T08:37:58;485.88;;;454.45;;
53915;SDS011;39827;49.652;18.770;2023-08-06T08:40:25;338.92;;;317.10;;
53915;SDS011;39827;49.652;18.770;2023-08-06T08:42:58;462.02;;;431.85;;
53915;SDS011;39827;49.652;18.770;2023-08-06T08:45:24;482.98;;;451.95;;
53915;SDS011;39827;49.652;18.770;2023-08-06T08:47:51;427.50;;;399.15;;
53915;SDS011;39827;49.652;18.770;2023-08-06T08:50:17;440.90;;;412.52;;
53915;SDS011;39827;49.652;18.770;2023-08-06T08:52:44;469.67;;;439.10;;
53915;SDS011;39827;49.652;18.770;2023-08-06T08:55:11;407.38;;;379.77;;
53915;SDS011;39827;49.652;18.770;2023-08-06T08:57:39;280.88;;;262.95;;
53915;SDS011;39827;49.652;18.770;2023-08-06T09:00:04;185.07;;;172.93;;
53915;SDS011;39827;49.652;18.770;2023-08-06T09:02:31;217.07;;;202.32;;
53915;SDS011;39827;49.652;18.770;2023-08-06T09:04:58;234.10;;;218.38;;
53915;SDS011;39827;49.652;18.770;2023-08-06T09:07:29;133.45;;;123.50;;
53915;SDS011;39827;49.652;18.770;2023-08-06T09:10:01;72.22;;;66.93;;
53915;SDS011;39827;49.652;18.770;2023-08-06T09:12:31;163.25;;;151.57;;
53915;SDS011;39827;49.652;18.770;2023-08-06T09:14:57;147.93;;;137.63;;
53915;SDS011;39827;49.652;18.770;2023-08-06T09:17:22;191.27;;;178.13;;
53915;SDS011;39827;49.652;18.770;2023-08-06T09:19:48;206.38;;;192.45;;
53915;SDS011;39827;49.652;18.770;2023-08-06T09:22:14;208.80;;;195.05;;
53915;SDS011;39827;49.652;18.770;2023-08-06T09:24:41;314.77;;;294.42;;
53915;SDS011;39827;49.652;18.770;2023-08-06T09:27:13;408.65;;;382.98;;
53915;SDS011;39827;49.652;18.770;2023-08-06T09:32:08;369.98;;;346.27;;
53915;SDS011;39827;49.652;18.770;2023-08-06T09:34:33;168.10;;;157.68;;
53915;SDS011;39827;49.652;18.770;2023-08-06T09:36:59;300.92;;;281.75;;
53915;SDS011;39827;49.652;18.770;2023-08-06T09:39:28;320.40;;;300.55;;
53915;SDS011;39827;49.652;18.770;2023-08-06T09:42:01;297.67;;;279.13;;
53915;SDS011;39827;49.652;18.770;2023-08-06T09:44:28;376.20;;;352.40;;
53915;SDS011;39827;49.652;18.770;2023-08-06T09:47:00;438.27;;;410.30;;
53915;SDS011;39827;49.652;18.770;2023-08-06T09:51:59;507.67;;;474.63;;
53915;SDS011;39827;49.652;18.770;2023-08-06T09:54:27;476.13;;;444.45;;
53915;SDS011;39827;49.652;18.770;2023-08-06T09:56:55;497.90;;;464.45;;
53915;SDS011;39827;49.652;18.770;2023-08-06T09:59:24;509.98;;;476.02;;
53915;SDS011;39827;49.652;18.770;2023-08-06T10:01:50;483.88;;;452.10;;
53915;SDS011;39827;49.652;18.770;2023-08-06T10:04:16;469.10;;;437.80;;
53915;SDS011;39827;49.652;18.770;2023-08-06T10:06:42;484.13;;;452.20;;
53915;SDS011;39827;49.652;18.770;2023-08-06T10:09:11;509.58;;;476.30;;
53915;SDS011;39827;49.652;18.770;2023-08-06T10:11:37;466.77;;;435.73;;
53915;SDS011;39827;49.652;18.770;2023-08-06T10:14:06;462.77;;;433.33;;
53915;SDS011;39827;49.652;18.770;2023-08-06T10:16:36;314.33;;;294.48;;
53915;SDS011;39827;49.652;18.770;2023-08-06T10:19:04;436.98;;;408.58;;
53915;SDS011;39827;49.652;18.770;2023-08-06T10:21:31;475.58;;;444.75;;
53915;SDS011;39827;49.652;18.770;2023-08-06T10:23:57;479.88;;;447.88;;
53915;SDS011;39827;49.652;18.770;2023-08-06T10:26:26;483.23;;;450.48;;
53915;SDS011;39827;49.652;18.770;2023-08-06T10:28:52;510.08;;;476.15;;
53915;SDS011;39827;49.652;18.770;2023-08-06T10:31:18;479.20;;;447.58;;
53915;SDS011;39827;49.652;18.770;2023-08-06T10:33:47;290.67;;;271.95;;
53915;SDS011;39827;49.652;18.770;2023-08-06T10:36:13;391.73;;;367.02;;
53915;SDS011;39827;49.652;18.770;2023-08-06T10:38:49;448.75;;;420.55;;
53915;SDS011;39827;49.652;18.770;2023-08-06T10:41:16;459.60;;;429.95;;
53915;SDS011;39827;49.652;18.770;2023-08-06T10:43:48;529.67;;;495.10;;
53915;SDS011;39827;49.652;18.770;2023-08-06T10:46:28;471.30;;;440.70;;
53915;SDS011;39827;49.652;18.770;2023-08-06T10:48:54;466.83;;;436.80;;
53915;SDS011;39827;49.652;18.770;2023-08-06T10:51:19;401.67;;;376.13;;
53915;SDS011;39827;49.652;18.770;2023-08-06T10:53:45;381.50;;;357.17;;
53915;SDS011;39827;49.652;18.770;2023-08-06T10:56:15;439.15;;;410.50;;
53915;SDS011;39827;49.652;18.770;2023-08-06T10:58:42;469.77;;;438.83;;
53915;SDS011;39827;49.652;18.770;2023-08-06T11:01:09;487.58;;;455.75;;
53915;SDS011;39827;49.652;18.770;2023-08-06T11:03:35;398.23;;;371.92;;
53915;SDS011;39827;49.652;18.770;2023-08-06T11:06:01;275.95;;;258.40;;
53915;SDS011;39827;49.652;18.770;2023-08-06T11:08:28;420.65;;;393.15;;
53915;SDS011;39827;49.652;18.770;2023-08-06T11:13:42;511.60;;;477.17;;
53915;SDS011;39827;49.652;18.770;2023-08-06T11:16:08;453.13;;;424.48;;
53915;SDS011;39827;49.652;18.770;2023-08-06T11:18:35;464.38;;;434.52;;
53915;SDS011;39827;49.652;18.770;2023-08-06T11:21:00;335.20;;;314.45;;
53915;SDS011;39827;49.652;18.770;2023-08-06T11:23:27;413.02;;;386.23;;
53915;SDS011;39827;49.652;18.770;2023-08-06T11:25:56;385.42;;;360.77;;
53915;SDS011;39827;49.652;18.770;2023-08-06T11:28:21;495.08;;;462.60;;
53915;SDS011;39827;49.652;18.770;2023-08-06T11:30:47;447.50;;;419.25;;
53915;SDS011;39827;49.652;18.770;2023-08-06T11:33:13;369.20;;;346.10;;
53915;SDS011;39827;49.652;18.770;2023-08-06T11:35:39;417.10;;;390.52;;
53915;SDS011;39827;49.652;18.770;2023-08-06T11:38:05;398.45;;;373.02;;
53915;SDS011;39827;49.652;18.770;2023-08-06T11:40:32;384.50;;;360.23;;
53915;SDS011;39827;49.652;18.770;2023-08-06T11:42:58;285.83;;;267.83;;
53915;SDS011;39827;49.652;18.770;2023-08-06T11:45:24;334.60;;;313.48;;
53915;SDS011;39827;49.652;18.770;2023-08-06T11:47:50;352.58;;;330.17;;
53915;SDS011;39827;49.652;18.770;2023-08-06T11:50:22;232.57;;;217.50;;
53915;SDS011;39827;49.652;18.770;2023-08-06T11:52:49;310.13;;;290.55;;
53915;SDS011;39827;49.652;18.770;2023-08-06T11:55:22;338.13;;;316.98;;
53915;SDS011;39827;49.652;18.770;2023-08-06T11:57:48;160.05;;;149.82;;
53915;SDS011;39827;49.652;18.770;2023-08-06T12:00:14;112.53;;;105.15;;
53915;SDS011;39827;49.652;18.770;2023-08-06T12:02:40;143.70;;;134.27;;
53915;SDS011;39827;49.652;18.770;2023-08-06T12:05:13;78.40;;;73.25;;
53915;SDS011;39827;49.652;18.770;2023-08-06T12:07:49;161.07;;;150.45;;
53915;SDS011;39827;49.652;18.770;2023-08-06T12:10:16;267.73;;;251.05;;
53915;SDS011;39827;49.652;18.770;2023-08-06T12:12:44;305.13;;;286.42;;
53915;SDS011;39827;49.652;18.770;2023-08-06T12:15:10;245.57;;;230.00;;
53915;SDS011;39827;49.652;18.770;2023-08-06T12:17:36;359.77;;;336.67;;
53915;SDS011;39827;49.652;18.770;2023-08-06T12:20:02;174.85;;;163.48;;
53915;SDS011;39827;49.652;18.770;2023-08-06T12:22:29;298.42;;;279.80;;
53915;SDS011;39827;49.652;18.770;2023-08-06T12:24:59;264.95;;;248.13;;
53915;SDS011;39827;49.652;18.770;2023-08-06T12:27:26;347.38;;;326.15;;
53915;SDS011;39827;49.652;18.770;2023-08-06T12:29:51;374.45;;;351.42;;
53915;SDS011;39827;49.652;18.770;2023-08-06T12:32:17;340.95;;;319.08;;
53915;SDS011;39827;49.652;18.770;2023-08-06T12:34:42;341.08;;;319.50;;
53915;SDS011;39827;49.652;18.770;2023-08-06T12:37:08;261.77;;;245.13;;
53915;SDS011;39827;49.652;18.770;2023-08-06T12:39:37;395.10;;;369.55;;
53915;SDS011;39827;49.652;18.770;2023-08-06T12:42:03;376.77;;;352.38;;
53915;SDS011;39827;49.652;18.770;2023-08-06T12:44:30;374.05;;;349.98;;
53915;SDS011;39827;49.652;18.770;2023-08-06T12:46:56;414.50;;;387.70;;
53915;SDS011;39827;49.652;18.770;2023-08-06T12:49:22;442.92;;;413.20;;
53915;SDS011;39827;49.652;18.770;2023-08-06T12:51:51;148.57;;;139.50;;
53915;SDS011;39827;49.652;18.770;2023-08-06T12:54:18;188.20;;;177.10;;
53915;SDS011;39827;49.652;18.770;2023-08-06T12:56:44;131.25;;;123.50;;
53915;SDS011;39827;49.652;18.770;2023-08-06T12:59:10;108.75;;;102.40;;
53915;SDS011;39827;49.652;18.770;2023-08-06T13:01:39;153.60;;;144.68;;
53915;SDS011;39827;49.652;18.770;2023-08-06T13:04:04;70.45;;;66.25;;
53915;SDS011;39827;49.652;18.770;2023-08-06T13:06:29;233.98;;;219.98;;
53915;SDS011;39827;49.652;18.770;2023-08-06T13:08:56;158.00;;;148.77;;
53915;SDS011;39827;49.652;18.770;2023-08-06T13:11:22;258.90;;;243.48;;
53915;SDS011;39827;49.652;18.770;2023-08-06T13:13:48;203.55;;;191.68;;
53915;SDS011;39827;49.652;18.770;2023-08-06T13:16:13;344.33;;;322.73;;
53915;SDS011;39827;49.652;18.770;2023-08-06T13:18:38;241.95;;;227.50;;
53915;SDS011;39827;49.652;18.770;2023-08-06T13:21:04;389.10;;;363.92;;
53915;SDS011;39827;49.652;18.770;2023-08-06T13:23:29;453.00;;;424.17;;
53915;SDS011;39827;49.652;18.770;2023-08-06T13:25:55;501.55;;;468.65;;
53915;SDS011;39827;49.652;18.770;2023-08-06T13:28:20;437.98;;;409.10;;
53915;SDS011;39827;49.652;18.770;2023-08-06T13:30:46;415.23;;;387.80;;
53915;SDS011;39827;49.652;18.770;2023-08-06T13:33:12;452.50;;;422.35;;
53915;SDS011;39827;49.652;18.770;2023-08-06T13:35:37;247.48;;;232.07;;
53915;SDS011;39827;49.652;18.770;2023-08-06T13:38:03;103.88;;;97.53;;
53915;SDS011;39827;49.652;18.770;2023-08-06T13:40:29;159.00;;;149.55;;
53915;SDS011;39827;49.652;18.770;2023-08-06T13:42:57;296.95;;;278.23;;
53915;SDS011;39827;49.652;18.770;2023-08-06T13:45:22;77.97;;;73.35;;
53915;SDS011;39827;49.652;18.770;2023-08-06T13:47:48;58.30;;;54.80;;
53915;SDS011;39827;49.652;18.770;2023-08-06T13:50:13;225.10;;;211.02;;
53915;SDS011;39827;49.652;18.770;2023-08-06T13:52:39;194.38;;;182.38;;
53915;SDS011;39827;49.652;18.770;2023-08-06T13:55:04;119.05;;;112.07;;
53915;SDS011;39827;49.652;18.770;2023-08-06T13:57:30;69.15;;;64.88;;
53915;SDS011;39827;49.652;18.770;2023-08-06T13:59:56;88.78;;;83.55;;
53915;SDS011;39827;49.652;18.770;2023-08-06T14:02:22;158.63;;;149.18;;